Time;durP1;ratioP1;P1;durP2;ratioP2;P2;SDS_P1;SDS_P2;PMS_P1;PMS_P2;Temp;Humidity;BMP_temperature;BMP_pressure;BME280_temperature;BME280_humidity;BME280_pressure;Samples;Min_cycle;Max_cycle;Signal;HPM_P1;HPM_P2
2023/06/09 00:00:36;;;;;;;18.67;15.65;;;;;;;11.20;100.00;95803.59;2025292;29;20064;-58
2023/06/09 00:01:37;;;;;;;19.40;14.95;;;;;;;11.21;100.00;95805.25;2026111;29;20045;-58
2023/06/09 00:02:39;;;;;;;19.25;16.10;;;;;;;11.13;100.00;95796.19;2025668;29;20057;-58
2023/06/09 00:03:40;;;;;;;19.33;15.98;;;;;;;11.22;100.00;95822.50;2025735;29;20066;-58
2023/06/09 00:04:44;;;;;;;18.98;14.25;;;;;;;11.25;100.00;95818.91;2025592;29;20052;-58
2023/06/09 00:05:46;;;;;;;15.63;12.68;;;;;;;11.27;100.00;95817.91;2025765;29;20056;-58
2023/06/09 00:06:47;;;;;;;13.02;11.07;;;;;;;11.27;100.00;95825.72;2025759;29;20068;-58
2023/06/09 00:07:52;;;;;;;14.63;10.88;;;;;;;11.33;100.00;95823.72;2025817;29;20132;-58
2023/06/09 00:08:53;;;;;;;12.35;10.82;;;;;;;11.32;100.00;95816.84;2025960;29;20067;-58
2023/06/09 00:09:54;;;;;;;12.77;10.30;;;;;;;11.27;100.00;95820.50;2026110;29;20061;-58
2023/06/09 00:10:56;;;;;;;10.98;9.80;;;;;;;11.30;100.00;95819.50;2026140;29;20052;-58
2023/06/09 00:11:57;;;;;;;12.18;10.80;;;;;;;11.23;100.00;95818.19;2025402;29;20063;-58
2023/06/09 00:12:58;;;;;;;12.63;10.93;;;;;;;11.26;100.00;95831.84;2025333;29;20056;-58
2023/06/09 00:13:59;;;;;;;12.43;10.48;;;;;;;11.25;100.00;95831.91;2026055;29;20434;-58
2023/06/09 00:15:00;;;;;;;14.70;11.25;;;;;;;11.23;100.00;95825.97;2025781;29;20063;-58
2023/06/09 00:16:01;;;;;;;15.05;12.10;;;;;;;11.21;100.00;95822.63;2025064;29;20481;-58
2023/06/09 00:17:03;;;;;;;16.92;12.73;;;;;;;11.20;100.00;95823.50;2025338;29;20098;-58
2023/06/09 00:18:04;;;;;;;15.93;13.02;;;;;;;11.15;100.00;95823.78;2025516;29;20481;-58
2023/06/09 00:19:08;;;;;;;15.77;13.18;;;;;;;11.11;100.00;95835.22;2026123;29;20059;-58
2023/06/09 00:20:10;;;;;;;14.80;12.05;;;;;;;11.08;100.00;95832.81;2025356;29;20075;-58
2023/06/09 00:21:18;;;;;;;14.88;12.93;;;;;;;11.05;100.00;95832.97;2025604;29;20063;-58
2023/06/09 00:22:21;;;;;;;13.73;11.65;;;;;;;11.01;100.00;95823.63;2026049;29;20068;-58
2023/06/09 00:23:23;;;;;;;14.82;12.23;;;;;;;11.03;100.00;95827.84;2025352;29;20446;-58
2023/06/09 00:24:25;;;;;;;19.30;13.40;;;;;;;10.88;100.00;95800.06;2026226;29;20056;-58
2023/06/09 00:25:26;;;;;;;16.88;13.68;;;;;;;10.91;100.00;95812.06;2025681;29;20064;-58
2023/06/09 00:26:27;;;;;;;17.25;14.18;;;;;;;10.96;100.00;95825.63;2017748;29;20398;-58
2023/06/09 00:27:29;;;;;;;18.42;13.88;;;;;;;10.92;100.00;95816.31;2017079;29;20061;-58
2023/06/09 00:28:30;;;;;;;18.63;14.43;;;;;;;10.91;100.00;95818.09;2017487;29;20049;-59
2023/06/09 00:29:31;;;;;;;17.60;14.40;;;;;;;10.90;100.00;95815.56;2017381;29;20516;-58
2023/06/09 00:30:32;;;;;;;20.55;14.70;;;;;;;10.86;100.00;95819.25;2025802;29;20051;-57
2023/06/09 00:31:33;;;;;;;19.83;14.20;;;;;;;10.86;100.00;95814.06;2025982;29;20378;-58
2023/06/09 00:32:35;;;;;;;16.75;14.52;;;;;;;10.84;100.00;95815.88;2017666;29;20064;-58
2023/06/09 00:33:36;;;;;;;16.20;13.77;;;;;;;10.79;100.00;95809.16;2017249;29;20406;-57
2023/06/09 00:34:38;;;;;;;14.55;12.60;;;;;;;10.78;100.00;95815.28;2025826;29;20052;-58
2023/06/09 00:35:39;;;;;;;20.67;14.73;;;;;;;10.78;100.00;95807.47;2025408;29;20052;-57
2023/06/09 00:36:40;;;;;;;16.27;13.80;;;;;;;10.80;100.00;95810.84;2017532;29;20220;-57
2023/06/09 00:37:41;;;;;;;19.73;13.90;;;;;;;10.81;100.00;95812.50;2017426;29;20056;-58
2023/06/09 00:38:42;;;;;;;22.92;15.57;;;;;;;10.81;100.00;95809.91;2025478;29;20053;-59
2023/06/09 00:39:43;;;;;;;18.80;13.77;;;;;;;10.78;100.00;95812.69;2025166;29;20068;-58
2023/06/09 00:40:44;;;;;;;19.92;14.70;;;;;;;10.71;100.00;95800.91;2017013;29;20375;-58
2023/06/09 00:41:45;;;;;;;17.90;14.10;;;;;;;10.76;100.00;95816.25;2009821;29;20402;-58
2023/06/09 00:42:47;;;;;;;17.98;15.25;;;;;;;10.73;100.00;95804.28;2009878;29;20057;-58
2023/06/09 00:43:48;;;;;;;16.10;14.23;;;;;;;10.74;100.00;95811.13;2017494;29;20064;-58
2023/06/09 00:44:50;;;;;;;16.67;13.55;;;;;;;10.78;100.00;95802.28;2025819;29;20057;-58
2023/06/09 00:45:51;;;;;;;20.13;15.25;;;;;;;10.77;100.00;95808.41;2025918;29;20489;-58
2023/06/09 00:46:53;;;;;;;17.83;14.88;;;;;;;10.77;100.00;95802.34;2017044;29;20053;-58
2023/06/09 00:47:54;;;;;;;22.20;15.57;;;;;;;10.78;100.00;95799.69;2001968;29;20106;-58
2023/06/09 00:48:55;;;;;;;19.38;15.98;;;;;;;10.79;100.00;95803.94;2002311;29;20042;-58
2023/06/09 00:49:56;;;;;;;21.80;16.63;;;;;;;10.80;100.00;95797.84;2017419;29;20044;-58
2023/06/09 00:50:58;;;;;;;18.55;14.68;;;;;;;10.82;100.00;95792.56;2009790;29;20041;-58
2023/06/09 00:51:59;;;;;;;21.60;17.10;;;;;;;10.76;100.00;95787.69;2009763;29;20375;-58
2023/06/09 00:53:01;;;;;;;18.05;14.98;;;;;;;10.75;100.00;95797.25;2009375;29;20054;-58
2023/06/09 00:54:02;;;;;;;18.65;14.95;;;;;;;10.77;100.00;95791.97;2001916;29;20495;-58
2023/06/09 00:55:04;;;;;;;15.52;13.68;;;;;;;10.83;100.00;95799.47;2009588;29;20434;-58
2023/06/09 00:56:05;;;;;;;19.27;14.30;;;;;;;10.84;100.00;95808.09;2009419;29;20703;-58
2023/06/09 00:57:07;;;;;;;16.73;14.13;;;;;;;10.80;100.00;95797.84;2009670;29;20359;-58
2023/06/09 00:58:08;;;;;;;16.40;13.73;;;;;;;10.89;100.00;95808.69;2009735;29;20532;-58
2023/06/09 00:59:10;;;;;;;18.05;14.27;;;;;;;10.93;100.00;95802.41;2009768;29;20065;-58
2023/06/09 01:00:15;;;;;;;21.20;14.45;;;;;;;10.80;100.00;95789.22;2009904;29;20077;-58
2023/06/09 01:01:33;;;;;;;14.90;13.02;;;;;;;10.91;100.00;95807.69;2356098;23;20023;-58
2023/06/09 01:02:38;;;;;;;16.63;13.90;;;;;;;10.88;100.00;95799.19;2032098;23;20056;-58
2023/06/09 01:03:39;;;;;;;17.02;13.35;;;;;;;10.87;100.00;95803.56;2025349;29;20067;-57
2023/06/09 01:04:40;;;;;;;15.73;13.20;;;;;;;10.84;100.00;95800.28;2025724;29;20064;-58
2023/06/09 01:05:44;;;;;;;19.80;14.30;;;;;;;10.80;100.00;95794.44;2025321;29;20056;-58
2023/06/09 01:07:03;;;;;;;18.60;13.93;;;;;;;10.78;100.00;95793.66;2017396;29;20061;-58
2023/06/09 01:08:12;;;;;;;19.80;14.43;;;;;;;10.74;100.00;95797.31;2019987;29;20037;-57
2023/06/09 01:09:35;;;;;;;21.10;14.20;;;;;;;10.73;100.00;95803.44;2017038;29;20469;-58
2023/06/09 01:10:40;;;;;;;18.33;14.10;;;;;;;10.70;100.00;95801.84;2019230;29;20048;-57
2023/06/09 01:12:22;;;;;;;20.55;15.40;;;;;;;10.67;100.00;95794.22;2024333;29;20551;-57
2023/06/09 01:14:01;;;;;;;20.10;14.35;;;;;;;10.66;100.00;95794.28;1995380;29;20057;-57
2023/06/09 01:15:17;;;;;;;17.75;14.48;;;;;;;10.64;100.00;95794.38;2007048;29;20045;-57
2023/06/09 01:16:24;;;;;;;19.38;14.95;;;;;;;10.52;100.00;95784.59;2018017;29;20060;-57
2023/06/09 01:17:25;;;;;;;17.77;13.75;;;;;;;10.57;100.00;95785.19;2017126;29;20068;-58
2023/06/09 01:18:30;;;;;;;19.85;13.95;;;;;;;10.68;100.00;95806.25;2009637;29;20069;-58
2023/06/09 01:19:40;;;;;;;16.00;13.00;;;;;;;10.67;100.00;95796.81;2009733;29;20114;-58
2023/06/09 01:20:53;;;;;;;19.83;14.00;;;;;;;10.63;100.00;95792.66;2018299;29;20061;-57
2023/06/09 01:21:54;;;;;;;19.30;14.32;;;;;;;10.69;100.00;95810.56;2017199;29;20412;-57
2023/06/09 01:23:03;;;;;;;20.67;14.77;;;;;;;10.69;100.00;95805.38;2009498;29;20508;-58
2023/06/09 01:24:23;;;;;;;18.35;13.65;;;;;;;10.74;100.00;95800.75;2003276;29;20065;-57
2023/06/09 01:25:34;;;;;;;22.77;15.07;;;;;;;10.67;100.00;95791.59;2006568;29;20050;-57
2023/06/09 01:26:38;;;;;;;17.73;13.75;;;;;;;10.72;100.00;95797.41;2011004;29;20164;-58
2023/06/09 01:27:39;;;;;;;17.40;14.30;;;;;;;10.68;100.00;95795.88;2010030;29;20060;-57
2023/06/09 01:28:43;;;;;;;17.55;14.38;;;;;;;10.65;100.00;95800.41;2009889;29;20061;-58
2023/06/09 01:29:44;;;;;;;20.58;15.65;;;;;;;10.70;100.00;95806.19;2002366;29;20501;-58
2023/06/09 01:30:48;;;;;;;17.20;14.07;;;;;;;10.72;100.00;95810.41;1995638;29;20062;-57
2023/06/09 01:31:50;;;;;;;18.45;13.80;;;;;;;10.73;100.00;95804.28;2002148;29;20054;-57
2023/06/09 01:32:51;;;;;;;20.83;15.25;;;;;;;10.68;100.00;95806.25;1994687;29;20065;-57
2023/06/09 01:33:52;;;;;;;18.13;13.70;;;;;;;10.71;100.00;95811.28;2009029;29;20061;-57
2023/06/09 01:34:53;;;;;;;18.60;14.48;;;;;;;10.68;100.00;95811.47;2009216;29;20061;-57
2023/06/09 01:35:54;;;;;;;17.75;13.95;;;;;;;10.65;100.00;95819.41;2001844;29;20053;-57
2023/06/09 01:36:55;;;;;;;18.10;14.55;;;;;;;10.63;100.00;95810.00;2008994;29;20057;-57
2023/06/09 01:37:56;;;;;;;19.33;14.68;;;;;;;10.63;100.00;95818.63;2016649;29;20064;-57
2023/06/09 01:38:58;;;;;;;17.83;14.25;;;;;;;10.63;100.00;95816.03;2009196;29;20057;-57
2023/06/09 01:39:59;;;;;;;15.88;13.95;;;;;;;10.63;100.00;95821.22;2009923;29;20045;-57
2023/06/09 01:41:00;;;;;;;19.88;14.43;;;;;;;10.54;100.00;95793.16;2009588;29;20064;-57
2023/06/09 01:42:01;;;;;;;19.30;14.95;;;;;;;10.71;100.00;95806.09;2009563;29;20042;-57
2023/06/09 01:43:04;;;;;;;17.45;14.13;;;;;;;10.75;100.00;95812.00;2024890;29;20060;-58
2023/06/09 01:44:05;;;;;;;16.55;13.10;;;;;;;10.66;100.00;95792.50;2017058;29;20157;-57
2023/06/09 01:45:07;;;;;;;15.77;13.70;;;;;;;10.75;100.00;95810.25;2016862;29;20061;-57
2023/06/09 01:46:08;;;;;;;19.30;14.43;;;;;;;10.64;100.00;95796.09;2025695;29;20045;-57
2023/06/09 01:47:09;;;;;;;17.20;12.80;;;;;;;10.72;100.00;95806.94;2016811;29;20489;-57
2023/06/09 01:48:21;;;;;;;17.95;13.27;;;;;;;10.73;100.00;95813.81;2008965;29;20425;-57
2023/06/09 01:49:45;;;;;;;18.08;14.50;;;;;;;10.70;100.00;95804.44;2018261;29;20482;-57
2023/06/09 01:50:53;;;;;;;19.90;14.23;;;;;;;10.57;100.00;95791.22;2008873;29;20081;-57
2023/06/09 01:52:02;;;;;;;;;;;;;;;10.64;100.00;95804.75;2007228;29;20416;-58
2023/06/09 01:53:09;;;;;;;17.20;13.60;;;;;;;10.62;100.00;95791.00;2018695;29;19919;-57
2023/06/09 01:54:14;;;;;;;17.40;13.95;;;;;;;10.55;100.00;95784.44;2008870;29;20362;-57
2023/06/09 01:55:26;;;;;;;17.27;14.25;;;;;;;10.60;100.00;95800.63;2010472;29;20069;-57
2023/06/09 01:56:32;;;;;;;19.55;14.35;;;;;;;10.60;100.00;95803.22;2024097;29;20060;-57
2023/06/09 01:57:39;;;;;;;18.20;13.93;;;;;;;10.58;100.00;95802.44;2016513;29;20519;-57
2023/06/09 01:58:45;;;;;;;16.20;12.43;;;;;;;10.57;100.00;95800.78;2002717;29;20149;-58
2023/06/09 02:00:05;;;;;;;18.98;14.82;;;;;;;10.62;100.00;95810.94;1996078;29;20057;-57
2023/06/09 02:01:16;;;;;;;15.90;13.73;;;;;;;10.58;100.00;95805.91;2008540;29;20058;-57
2023/06/09 02:02:18;;;;;;;18.80;15.23;;;;;;;10.47;100.00;95786.56;1995544;29;20110;-57
2023/06/09 02:03:20;;;;;;;19.02;15.07;;;;;;;10.50;100.00;95802.81;1994897;29;20065;-57
2023/06/09 02:04:21;;;;;;;17.88;14.07;;;;;;;10.46;100.00;95803.06;2017012;29;20053;-58
2023/06/09 02:05:23;;;;;;;16.40;13.55;;;;;;;10.40;100.00;95783.47;2016730;29;20076;-57
2023/06/09 02:06:24;;;;;;;18.85;15.07;;;;;;;10.46;100.00;95813.47;2009166;29;20057;-58
2023/06/09 02:07:25;;;;;;;17.55;13.60;;;;;;;10.44;100.00;95808.31;2009358;29;20076;-57
2023/06/09 02:08:28;;;;;;;18.10;14.48;;;;;;;10.46;100.00;95806.50;2009483;29;20080;-57
2023/06/09 02:09:30;;;;;;;18.88;15.45;;;;;;;10.38;100.00;95803.44;2009270;29;20068;-58
2023/06/09 02:10:31;;;;;;;18.55;15.50;;;;;;;10.43;100.00;95800.63;2001778;29;20058;-58
2023/06/09 02:11:32;;;;;;;19.90;15.55;;;;;;;10.42;100.00;95806.72;2017286;29;20450;-58
2023/06/09 02:12:33;;;;;;;19.10;15.93;;;;;;;10.31;100.00;95795.09;2009333;29;20080;-58
2023/06/09 02:13:35;;;;;;;25.85;16.20;;;;;;;10.37;100.00;95804.34;2009449;29;20057;-57
2023/06/09 02:14:36;;;;;;;22.80;16.65;;;;;;;10.34;100.00;95807.09;2009141;29;20072;-58
2023/06/09 02:15:37;;;;;;;23.65;16.13;;;;;;;10.32;100.00;95808.94;2016515;29;20113;-58
2023/06/09 02:16:40;;;;;;;23.58;16.27;;;;;;;10.28;100.00;95810.84;2016585;29;20057;-57
2023/06/09 02:17:42;;;;;;;20.27;16.15;;;;;;;10.23;100.00;95805.00;2017308;29;20053;-57
2023/06/09 02:18:43;;;;;;;20.85;16.23;;;;;;;10.23;100.00;95804.16;2016376;29;20052;-57
2023/06/09 02:19:45;;;;;;;20.65;15.75;;;;;;;10.20;100.00;95806.91;2016733;29;20069;-57
2023/06/09 02:20:46;;;;;;;20.55;15.05;;;;;;;10.19;100.00;95813.03;2017147;29;20053;-58
2023/06/09 02:21:47;;;;;;;19.08;15.38;;;;;;;10.19;100.00;95808.69;2016922;29;20429;-57
2023/06/09 02:22:48;;;;;;;19.00;14.90;;;;;;;10.21;100.00;95806.84;2025124;29;20056;-57
2023/06/09 02:23:50;;;;;;;17.95;15.35;;;;;;;10.23;100.00;95809.34;2025626;29;20055;-57
2023/06/09 02:24:51;;;;;;;23.05;16.77;;;;;;;10.23;100.00;95806.75;2016334;29;20069;-57
2023/06/09 02:25:52;;;;;;;20.70;16.42;;;;;;;10.22;100.00;95805.94;2009135;29;20053;-57
2023/06/09 02:26:54;;;;;;;23.20;17.83;;;;;;;10.13;100.00;95796.84;2016826;29;20057;-58
2023/06/09 02:27:55;;;;;;;21.08;17.77;;;;;;;10.18;100.00;95806.97;2025048;29;20056;-57
2023/06/09 02:28:57;;;;;;;23.33;17.67;;;;;;;10.18;100.00;95806.97;2017830;29;20441;-57
2023/06/09 02:29:58;;;;;;;20.77;16.77;;;;;;;10.18;100.00;95809.56;2018593;29;20061;-57
2023/06/09 02:30:59;;;;;;;23.88;17.77;;;;;;;10.07;100.00;95794.53;2025668;29;20122;-57
2023/06/09 02:32:01;;;;;;;21.92;17.40;;;;;;;10.14;100.00;95808.06;2026189;29;20056;-57
2023/06/09 02:33:02;;;;;;;24.75;17.50;;;;;;;10.07;100.00;95796.28;2026847;29;20059;-57
2023/06/09 02:34:03;;;;;;;23.58;17.45;;;;;;;10.16;100.00;95806.22;2026120;29;20067;-57
2023/06/09 02:35:05;;;;;;;21.35;16.45;;;;;;;10.23;100.00;95810.19;2010462;29;20053;-58
2023/06/09 02:36:06;;;;;;;19.92;15.70;;;;;;;10.27;100.00;95803.97;2010686;29;20064;-57
2023/06/09 02:37:07;;;;;;;19.35;15.60;;;;;;;10.27;100.00;95806.56;2018439;29;20045;-57
2023/06/09 02:38:08;;;;;;;18.35;14.98;;;;;;;10.26;100.00;95807.44;2018045;29;20490;-57
2023/06/09 02:39:09;;;;;;;19.52;15.63;;;;;;;10.26;100.00;95809.19;2026418;29;20055;-58
2023/06/09 02:40:11;;;;;;;21.15;15.82;;;;;;;10.27;100.00;95805.72;2018283;29;20053;-58
2023/06/09 02:41:12;;;;;;;21.67;16.23;;;;;;;10.34;100.00;95802.78;2018417;29;20045;-57
2023/06/09 02:42:13;;;;;;;18.45;15.43;;;;;;;10.34;100.00;95804.50;2010352;29;20060;-57
2023/06/09 02:43:14;;;;;;;18.80;15.73;;;;;;;10.32;100.00;95812.38;2018249;29;20064;-57
2023/06/09 02:44:16;;;;;;;19.63;16.38;;;;;;;10.33;100.00;95811.47;2018527;29;20373;-57
2023/06/09 02:45:17;;;;;;;18.48;15.52;;;;;;;10.31;100.00;95808.09;2018699;29;20577;-57
2023/06/09 02:46:18;;;;;;;19.80;14.55;;;;;;;10.30;100.00;95816.81;2025709;29;20068;-57
2023/06/09 02:47:19;;;;;;;18.75;15.82;;;;;;;10.27;100.00;95811.75;2025371;29;20392;-57
2023/06/09 02:48:20;;;;;;;19.52;15.98;;;;;;;10.26;100.00;95809.19;2017944;29;20068;-57
2023/06/09 02:49:21;;;;;;;19.17;15.43;;;;;;;10.22;100.00;95818.06;2018313;29;20448;-57
2023/06/09 02:50:23;;;;;;;19.67;16.20;;;;;;;10.22;100.00;95816.31;2026660;29;20040;-57
2023/06/09 02:51:28;;;;;;;20.70;15.80;;;;;;;10.20;100.00;95815.53;2017544;29;20056;-58
2023/06/09 02:52:31;;;;;;;20.23;16.23;;;;;;;10.21;100.00;95817.22;2010524;29;20053;-58
2023/06/09 02:53:32;;;;;;;24.98;16.55;;;;;;;10.19;100.00;95808.69;2018222;29;20061;-57
2023/06/09 02:54:35;;;;;;;23.50;17.65;;;;;;;10.15;100.00;95815.75;2018227;29;20504;-57
2023/06/09 02:55:37;;;;;;;22.00;16.95;;;;;;;10.12;100.00;95815.06;2010359;29;20052;-57
2023/06/09 02:56:38;;;;;;;21.10;16.38;;;;;;;10.09;100.00;95815.22;2010391;29;20069;-57
2023/06/09 02:57:39;;;;;;;22.42;17.35;;;;;;;10.08;100.00;95822.16;2010401;29;20057;-57
2023/06/09 02:58:41;;;;;;;22.35;17.35;;;;;;;10.05;100.00;95818.84;2009823;29;20053;-57
2023/06/09 02:59:42;;;;;;;21.20;17.17;;;;;;;10.03;100.00;95812.94;2010179;29;20537;-57
2023/06/09 03:00:46;;;;;;;21.98;16.88;;;;;;;9.94;100.00;95803.81;2010267;29;20058;-56
2023/06/09 03:01:48;;;;;;;21.60;16.83;;;;;;;9.99;100.00;95827.78;2003736;29;20057;-57
2023/06/09 03:02:51;;;;;;;24.73;17.63;;;;;;;9.98;100.00;95820.09;2002768;29;20066;-57
2023/06/09 03:03:52;;;;;;;25.65;18.35;;;;;;;9.96;100.00;95827.94;2010575;29;20085;-57
2023/06/09 03:04:54;;;;;;;24.23;18.33;;;;;;;9.92;100.00;95822.06;2017690;29;20071;-57
2023/06/09 03:05:55;;;;;;;24.02;17.15;;;;;;;9.90;100.00;95817.84;2017836;29;20053;-58
2023/06/09 03:06:56;;;;;;;21.52;16.52;;;;;;;9.89;100.00;95816.16;2010423;29;20164;-57
2023/06/09 03:07:57;;;;;;;25.88;18.90;;;;;;;9.87;100.00;95818.00;2010086;29;20445;-57
2023/06/09 03:09:01;;;;;;;24.25;18.77;;;;;;;9.85;100.00;95822.41;2009996;29;20057;-57
2023/06/09 03:10:04;;;;;;;25.83;19.30;;;;;;;9.85;100.00;95822.41;2010360;29;20125;-58
2023/06/09 03:11:07;;;;;;;18.80;15.55;;;;;;;9.82;100.00;95826.00;2011015;29;20125;-57
2023/06/09 03:12:09;;;;;;;22.58;16.67;;;;;;;9.81;100.00;95826.91;2010512;29;20048;-57
2023/06/09 03:13:11;;;;;;;25.20;19.38;;;;;;;9.73;100.00;95816.06;2017908;29;20424;-57
2023/06/09 03:14:16;;;;;;;23.75;17.23;;;;;;;9.81;100.00;95829.50;2018186;29;20132;-57
2023/06/09 03:15:17;;;;;;;25.17;18.77;;;;;;;9.78;100.00;95819.25;2017999;29;20060;-57
2023/06/09 03:16:19;;;;;;;23.40;17.92;;;;;;;9.80;100.00;95822.63;2010413;29;20057;-57
2023/06/09 03:17:21;;;;;;;24.42;18.40;;;;;;;9.83;100.00;95827.66;2002885;29;20061;-58
2023/06/09 03:18:23;;;;;;;22.38;16.95;;;;;;;9.87;100.00;95821.44;2002878;29;20075;-57
2023/06/09 03:19:24;;;;;;;23.42;17.85;;;;;;;9.89;100.00;95827.38;2010095;29;20065;-57
2023/06/09 03:20:25;;;;;;;23.08;18.08;;;;;;;9.92;100.00;95827.25;2009558;29;20058;-57
2023/06/09 03:21:26;;;;;;;23.35;16.77;;;;;;;9.95;100.00;95826.25;2018013;29;20067;-57
2023/06/09 03:22:29;;;;;;;22.17;15.85;;;;;;;9.97;100.00;95829.63;2010646;29;20429;-57
2023/06/09 03:23:34;;;;;;;20.98;16.40;;;;;;;9.97;100.00;95826.16;2010459;29;20053;-58
2023/06/09 03:24:36;;;;;;;24.42;17.17;;;;;;;9.96;100.00;95819.31;2010533;29;20109;-58
2023/06/09 03:25:39;;;;;;;24.17;17.63;;;;;;;9.99;100.00;95827.78;2017975;29;20112;-57
2023/06/09 03:26:40;;;;;;;25.80;18.85;;;;;;;9.89;100.00;95810.97;2018028;29;20064;-57
2023/06/09 03:27:42;;;;;;;23.13;18.02;;;;;;;9.94;100.00;95825.41;2010544;29;20058;-57
2023/06/09 03:28:44;;;;;;;25.35;18.58;;;;;;;9.94;100.00;95829.75;2009820;29;20054;-57
2023/06/09 03:29:45;;;;;;;22.63;16.50;;;;;;;9.90;100.00;95826.47;2017596;29;20057;-57
2023/06/09 03:30:46;;;;;;;23.35;16.77;;;;;;;9.88;100.00;95825.69;2018074;29;20052;-57
2023/06/09 03:31:48;;;;;;;21.17;15.75;;;;;;;9.90;100.00;95823.88;2017781;29;20500;-56
2023/06/09 03:32:50;;;;;;;22.70;15.40;;;;;;;9.90;100.00;95823.88;2017360;29;20061;-56
2023/06/09 03:33:51;;;;;;;26.52;17.70;;;;;;;9.89;100.00;95827.38;2025408;29;20445;-56
2023/06/09 03:34:53;;;;;;;21.83;16.67;;;;;;;9.84;100.00;95813.78;2017733;29;20059;-56
2023/06/09 03:35:54;;;;;;;21.45;16.92;;;;;;;9.87;100.00;95823.19;2010145;29;20076;-56
2023/06/09 03:36:57;;;;;;;21.73;16.98;;;;;;;9.79;100.00;95809.75;2017375;29;20052;-56
2023/06/09 03:37:59;;;;;;;22.10;17.10;;;;;;;9.88;100.00;95827.44;2010208;29;20053;-56
2023/06/09 03:39:00;;;;;;;24.95;18.25;;;;;;;9.86;100.00;95819.75;2010133;29;20049;-56
2023/06/09 03:40:03;;;;;;;23.08;18.30;;;;;;;9.79;100.00;95813.16;2009091;29;20049;-57
2023/06/09 03:41:04;;;;;;;23.40;18.02;;;;;;;9.87;100.00;95826.63;2010112;29;20050;-56
2023/06/09 03:42:06;;;;;;;23.02;16.98;;;;;;;9.79;100.00;95815.75;2009963;29;20053;-56
2023/06/09 03:43:07;;;;;;;21.30;16.25;;;;;;;9.88;100.00;95827.44;2018021;29;20056;-56
2023/06/09 03:44:08;;;;;;;23.40;17.48;;;;;;;9.90;100.00;95834.25;2025276;29;20052;-56
2023/06/09 03:45:09;;;;;;;20.67;15.73;;;;;;;9.89;100.00;95823.94;2017660;29;20049;-56
2023/06/09 03:46:11;;;;;;;23.40;17.73;;;;;;;9.92;100.00;95821.22;2017490;29;20114;-56
2023/06/09 03:47:14;;;;;;;24.23;17.30;;;;;;;9.95;100.00;95834.03;2009705;29;20061;-57
2023/06/09 03:48:16;;;;;;;26.67;18.40;;;;;;;9.92;100.00;95826.41;2002882;29;20089;-56
2023/06/09 03:49:18;;;;;;;23.63;17.85;;;;;;;9.99;100.00;95824.34;2010468;29;20056;-56
2023/06/09 03:50:20;;;;;;;25.45;17.08;;;;;;;10.02;100.00;95831.97;2017843;29;20060;-56
2023/06/09 03:51:21;;;;;;;24.98;18.05;;;;;;;10.02;100.00;95831.97;2009868;29;20057;-57
2023/06/09 03:52:22;;;;;;;23.48;17.25;;;;;;;10.07;100.00;95835.19;2017652;29;20072;-56
2023/06/09 03:53:25;;;;;;;19.45;16.10;;;;;;;10.10;100.00;95835.03;2009949;29;20509;-56
2023/06/09 03:54:26;;;;;;;22.25;16.45;;;;;;;10.11;100.00;95834.16;2009865;29;20065;-56
2023/06/09 03:55:31;;;;;;;21.02;16.17;;;;;;;10.07;100.00;95819.63;2010000;29;20050;-56
2023/06/09 03:56:32;;;;;;;21.17;15.68;;;;;;;10.15;100.00;95830.47;2017554;29;20053;-57
2023/06/09 03:57:33;;;;;;;24.52;18.38;;;;;;;10.11;100.00;95827.19;2009767;29;20053;-57
2023/06/09 03:58:35;;;;;;;24.77;16.95;;;;;;;10.19;100.00;95833.78;2002050;29;20049;-57
2023/06/09 03:59:36;;;;;;;20.80;16.77;;;;;;;10.21;100.00;95835.41;2009520;29;20068;-57
2023/06/09 04:00:37;;;;;;;20.85;15.63;;;;;;;10.15;100.00;95826.13;2017426;29;20057;-57
2023/06/09 04:01:40;;;;;;;21.35;16.48;;;;;;;10.25;100.00;95836.91;2017060;29;20057;-57
2023/06/09 04:02:42;;;;;;;24.60;17.40;;;;;;;10.28;100.00;95839.38;2016860;29;20057;-57
2023/06/09 04:03:43;;;;;;;22.40;15.95;;;;;;;10.30;100.00;95837.56;2009774;29;20122;-57
2023/06/09 04:04:44;;;;;;;19.75;15.90;;;;;;;10.34;100.00;95839.09;2017609;29;20136;-57
2023/06/09 04:05:46;;;;;;;22.25;16.95;;;;;;;10.37;100.00;95838.09;2009950;29;20359;-57
2023/06/09 04:06:47;;;;;;;23.70;16.85;;;;;;;10.41;100.00;95836.22;2009996;29;20536;-57
2023/06/09 04:07:49;;;;;;;23.40;16.40;;;;;;;10.43;100.00;95840.41;2009951;29;20434;-57
2023/06/09 04:08:51;;;;;;;22.40;16.23;;;;;;;10.47;100.00;95846.28;2002766;29;20072;-57
2023/06/09 04:09:52;;;;;;;19.67;16.02;;;;;;;10.49;100.00;95840.09;2002138;29;20054;-57
2023/06/09 04:10:53;;;;;;;21.48;15.88;;;;;;;10.53;100.00;95840.78;2009657;29;20076;-57
2023/06/09 04:11:55;;;;;;;22.42;17.40;;;;;;;10.56;100.00;95843.25;2017644;29;20493;-57
2023/06/09 04:12:57;;;;;;;20.95;15.85;;;;;;;10.52;100.00;95828.72;2017548;29;20057;-57
2023/06/09 04:13:58;;;;;;;23.42;16.88;;;;;;;10.63;100.00;95842.00;2009230;29;20057;-57
2023/06/09 04:15:00;;;;;;;20.23;15.63;;;;;;;10.66;100.00;95839.25;2010081;29;20061;-57
2023/06/09 04:16:01;;;;;;;22.27;16.05;;;;;;;10.70;100.00;95843.38;2010062;29;20046;-57
2023/06/09 04:17:03;;;;;;;18.75;15.13;;;;;;;10.74;100.00;95841.47;2017598;29;20045;-57
2023/06/09 04:18:04;;;;;;;20.27;16.40;;;;;;;10.77;100.00;95846.50;2009952;29;20390;-57
2023/06/09 04:19:08;;;;;;;20.25;15.98;;;;;;;10.80;100.00;95841.19;2017616;29;20060;-57
2023/06/09 04:20:10;;;;;;;18.88;15.63;;;;;;;10.85;100.00;95835.72;2017463;29;20441;-57
2023/06/09 04:21:14;;;;;;;18.15;14.30;;;;;;;10.89;100.00;95839.88;2017746;29;20362;-57
2023/06/09 04:22:15;;;;;;;19.17;14.82;;;;;;;10.93;100.00;95838.78;2010261;29;20057;-57
2023/06/09 04:23:16;;;;;;;17.95;13.95;;;;;;;10.95;100.00;95839.53;2017211;29;20386;-57
2023/06/09 04:24:19;;;;;;;15.90;13.82;;;;;;;10.98;100.00;95837.63;2017908;29;20053;-57
2023/06/09 04:25:28;;;;;;;17.33;14.05;;;;;;;10.94;100.00;95823.13;2009855;29;20061;-57
2023/06/09 04:26:37;;;;;;;16.60;14.07;;;;;;;11.08;100.00;95842.38;2017354;29;20401;-61
2023/06/09 04:27:38;;;;;;;18.52;13.90;;;;;;;11.12;100.00;95842.13;2009797;29;20057;-61
2023/06/09 04:28:40;;;;;;;16.92;13.45;;;;;;;11.16;100.00;95840.19;2016915;29;20057;-60
2023/06/09 04:29:41;;;;;;;17.52;14.23;;;;;;;11.20;100.00;95837.38;2017637;29;20056;-60
2023/06/09 04:30:43;;;;;;;17.75;13.82;;;;;;;11.24;100.00;95843.25;2026082;29;20063;-61
2023/06/09 04:31:46;;;;;;;16.90;13.80;;;;;;;11.28;100.00;95829.19;2025148;29;20063;-60
2023/06/09 04:32:50;;;;;;;19.20;13.65;;;;;;;11.32;100.00;95838.47;2016975;29;20065;-60
2023/06/09 04:33:51;;;;;;;16.33;13.05;;;;;;;11.30;100.00;95818.69;2009749;29;20057;-60
2023/06/09 04:34:53;;;;;;;16.05;12.68;;;;;;;11.40;100.00;95836.31;2017565;29;20080;-60
2023/06/09 04:35:54;;;;;;;15.48;13.15;;;;;;;11.45;100.00;95833.47;2017520;29;20049;-60
2023/06/09 04:36:56;;;;;;;14.98;12.27;;;;;;;11.48;100.00;95838.50;2017788;29;20056;-61
2023/06/09 04:37:59;;;;;;;15.57;12.90;;;;;;;11.51;100.00;95829.72;2009696;29;20049;-60
2023/06/09 04:39:03;;;;;;;17.13;12.73;;;;;;;11.59;100.00;95840.53;2017851;29;20053;-60
2023/06/09 04:40:08;;;;;;;16.38;12.75;;;;;;;11.62;100.00;95836.00;2025033;29;20056;-60
2023/06/09 04:41:09;;;;;;;16.27;11.75;;;;;;;11.66;100.00;95837.53;2024665;29;20088;-59
2023/06/09 04:42:14;;;;;;;12.82;11.05;;;;;;;11.66;100.00;95827.13;2017346;29;20053;-60
2023/06/09 04:43:16;;;;;;;14.15;11.60;;;;;;;11.68;100.00;95827.03;2017432;29;20121;-60
2023/06/09 04:44:18;;;;;;;13.88;11.45;;;;;;;11.79;100.00;95839.47;2009718;29;20045;-60
2023/06/09 04:45:27;;;;;;;16.80;11.50;;;;;;;11.83;100.00;95847.00;2017830;29;20079;-60
2023/06/09 04:46:31;;;;;;;13.73;11.43;;;;;;;11.86;100.00;95843.44;2017587;29;20045;-60
2023/06/09 04:47:33;;;;;;;16.88;11.88;;;;;;;11.91;100.00;95841.41;2017069;29;20073;-60